WetterOnline ( https://www.wetteronline.de )

Wetter aktuell Altenahr

Aktuelles Wetter: Nürburg-Barweiler (488m)

6-stündlich | Neueste Meldungen
Ortszeit Temperatur Wetter
Mi, 21.08. 8:00 9.1° C wolkenlos
Mi, 21.08. 2:00 11.3° C leicht bewölkt
Di, 20.08. 20:00 17.3° C bewölkt
Di, 20.08. 14:00 17.1° C wolkig
Di, 20.08. 8:00 10.0° C leicht bewölkt
Di, 20.08. 2:00 12.4° C wolkenlos
Mo, 19.08. 20:00 17.4° C leicht bewölkt
Mo, 19.08. 14:00 18.9° C fast wolkenlos
Ortszeit Temperatur Wetter
Mi, 21.08. 13:30 18.6° C fast wolkenlos
Mi, 21.08. 13:20 18.6° C fast wolkenlos
Mi, 21.08. 13:10 18.6° C leicht bewölkt
Mi, 21.08. 13:00 18.6° C leicht bewölkt
Mi, 21.08. 12:50 18.6° C leicht bewölkt
Mi, 21.08. 12:40 17.5° C leicht bewölkt
Mi, 21.08. 12:30 17.1° C leicht bewölkt
Mi, 21.08. 12:00 17.7° C leicht bewölkt
Mi, 21.08. 11:30 16.4° C leicht bewölkt
Mi, 21.08. 11:00 15.7° C fast wolkenlos
Mi, 21.08. 10:00 13.6° C wolkenlos
Ortszeit Relative Feuchte Sichtweite
Mi, 21.08. 8:00 89% 18 km
Mi, 21.08. 2:00 90% 40 km
Di, 20.08. 20:00 55% 50 km
Di, 20.08. 14:00 56% 45 km
Di, 20.08. 8:00 83% 35 km
Di, 20.08. 2:00 76% 50 km
Mo, 19.08. 20:00 53% 60 km
Mo, 19.08. 14:00 48% 35 km
Ortszeit Relative Feuchte Sichtweite
Mi, 21.08. 13:30 46% 25 km
Mi, 21.08. 13:20 46% -
Mi, 21.08. 13:10 48% -
Mi, 21.08. 13:00 44% 40 km
Mi, 21.08. 12:50 44% -
Mi, 21.08. 12:40 51% -
Mi, 21.08. 12:30 52% 45 km
Mi, 21.08. 12:00 53% 35 km
Mi, 21.08. 11:30 59% 40 km
Mi, 21.08. 11:00 67% 40 km
Mi, 21.08. 10:00 77% 35 km
Ortszeit Niederschlagsmenge Niederschlagsart
Mi, 21.08. 8:00 0.0 l/m2 in 12 Std. -
Mi, 21.08. 2:00 0.0 l/m2 in 6 Std. -
Di, 20.08. 20:00 0.0 l/m2 in 12 Std. -
Di, 20.08. 14:00 0.0 l/m2 in 6 Std. -
Di, 20.08. 8:00 0.0 l/m2 in 12 Std. -
Di, 20.08. 2:00 0.0 l/m2 in 6 Std. -
Mo, 19.08. 20:00 0.0 l/m2 in 12 Std. -
Mo, 19.08. 14:00 0.0 l/m2 in 6 Std. -
Ortszeit Niederschlagsmenge Niederschlagsart
Mi, 21.08. 13:30 0.0 l/m2 in 1 Std. -
Mi, 21.08. 13:20 keine Meldung -
Mi, 21.08. 13:10 keine Meldung -
Mi, 21.08. 13:00 0.0 l/m2 in 1 Std. -
Mi, 21.08. 12:50 keine Meldung -
Mi, 21.08. 12:40 keine Meldung -
Mi, 21.08. 12:30 0.0 l/m2 in 1 Std. -
Mi, 21.08. 12:00 0.0 l/m2 in 1 Std. -
Mi, 21.08. 11:30 0.0 l/m2 in 1 Std. -
Mi, 21.08. 11:00 0.0 l/m2 in 1 Std. -
Mi, 21.08. 10:00 keine Meldung -
Ortszeit Stärke Spitze Richtung
km/h Bft. km/h Grad Sektor
Mi, 21.08. 8:00 4 1 11 220° SW
Mi, 21.08. 2:00 4 1 14 250° W
Di, 20.08. 20:00 9 2 24 260° W
Di, 20.08. 14:00 7 2 22 270° W
Di, 20.08. 8:00 4 1 11 190° S
Di, 20.08. 2:00 7 2 18 240° SW
Mo, 19.08. 20:00 11 2 39 250° W
Mo, 19.08. 14:00 17 3 35 240° SW
Ortszeit Stärke Spitze Richtung
km/h Bft. km/h Grad Sektor
Mi, 21.08. 13:30 9 2 17 310° NW
Mi, 21.08. 13:20 9 2 - 310° NW
Mi, 21.08. 13:10 7 2 - 320° NW
Mi, 21.08. 13:00 4 1 14 290° W
Mi, 21.08. 12:50 4 1 - 290° W
Mi, 21.08. 12:40 4 1 - 340° N
Mi, 21.08. 12:30 4 1 14 300° NW
Mi, 21.08. 12:00 7 2 14 290° W
Mi, 21.08. 11:30 6 1 11 310° NW
Mi, 21.08. 11:00 4 1 7 330° NW
Mi, 21.08. 10:00 4 1 7 280° W
Ortszeit Untergrenze Bedeckung Gattung
total tief tief mittel hoch
Mi, 21.08. 8:00 - 0/8 0/8 - - -
Mi, 21.08. 2:00 1200 m 4/8 4/8 - - -
Di, 20.08. 20:00 1470 m 8/8 7/8 - - -
Di, 20.08. 14:00 1140 m 7/8 1/8 - - -
Di, 20.08. 8:00 6000 m 6/8 1/8 - - -
Di, 20.08. 2:00 - 0/8 0/8 - - -
Mo, 19.08. 20:00 7500 m 4/8 0/8 - - -
Mo, 19.08. 14:00 1800 m 1/8 1/8 - - -
Ortszeit Bedeckungsgrad in Achtel und Wolkenuntergrenze
Mi, 21.08. 13:30 1(9000m)
Mi, 21.08. 13:20 1(9000m)
Mi, 21.08. 13:10 1(1500m) 2(9000m)
Mi, 21.08. 13:00 2(1500m)
Mi, 21.08. 12:50 2(1500m)
Mi, 21.08. 12:40 3(1500m)
Mi, 21.08. 12:30 2(1410m) 3(1500m)
Mi, 21.08. 12:00 3(1350m) 3(1500m)
Mi, 21.08. 11:30 3(1170m) 2(1470m)
Mi, 21.08. 11:00 1(1200m)
Mi, 21.08. 10:00 keine Wolken
Ortszeit Luftdruck NN (hPa) Tendenz (hPa in 3 Std.)
Mi, 21.08. 8:00 1030 + 0,7
Mi, 21.08. 2:00 1028 + 0,7
Di, 20.08. 20:00 1024 + 0,9
Di, 20.08. 14:00 1023 + 0,3
Di, 20.08. 8:00 1023 + 0,8
Di, 20.08. 2:00 1022 + 0,8
Mo, 19.08. 20:00 1019 + 0,7
Mo, 19.08. 14:00 1017 + 0,7
Ortszeit Luftdruck NN (hPa) Tendenz (hPa in 3 Std.)
Mi, 21.08. 13:30 1028 - 0,5
Mi, 21.08. 13:20 1028 keine Meldung
Mi, 21.08. 13:10 1028 keine Meldung
Mi, 21.08. 13:00 1028 - 0,4
Mi, 21.08. 12:50 1028 keine Meldung
Mi, 21.08. 12:40 1028 keine Meldung
Mi, 21.08. 12:30 1028 + 0,1
Mi, 21.08. 12:00 1028 + 0,1
Mi, 21.08. 11:30 1028 + 0,1
Mi, 21.08. 11:00 1029 + 0,3
Mi, 21.08. 10:00 1029 + 0,6
Ortszeit Schneehöhe (cm)
Mi, 21.08. 8:00 -
Mi, 21.08. 2:00 -
Di, 20.08. 20:00 -
Di, 20.08. 14:00 -
Di, 20.08. 8:00 -
Di, 20.08. 2:00 -
Mo, 19.08. 20:00 -
Mo, 19.08. 14:00 -
Ortszeit Schneehöhe (cm)
Mi, 21.08. 13:30 -
Mi, 21.08. 13:20 -
Mi, 21.08. 13:10 -
Mi, 21.08. 13:00 -
Mi, 21.08. 12:50 -
Mi, 21.08. 12:40 -
Mi, 21.08. 12:30 -
Mi, 21.08. 12:00 -
Mi, 21.08. 11:30 -
Mi, 21.08. 11:00 -
Mi, 21.08. 10:00 -
Link zu dieser Seite / Seite empfehlen

Das Wetter in ...